createdAt,value
2018-03-06T00:00:04.259Z,16.73
2018-03-06T00:02:31.847Z,15.47
2018-03-06T00:04:59.788Z,15.50
2018-03-06T00:07:27.354Z,15.43
2018-03-06T00:09:55.236Z,13.93
2018-03-06T00:12:23.113Z,13.60
2018-03-06T00:14:51.071Z,13.70
2018-03-06T00:17:18.537Z,13.33
2018-03-06T00:19:46.094Z,12.93
2018-03-06T00:22:14.018Z,13.40
2018-03-06T00:24:41.526Z,14.57
2018-03-06T00:27:09.493Z,14.80
2018-03-06T00:29:36.966Z,14.37
2018-03-06T00:32:04.429Z,13.37
2018-03-06T00:34:31.992Z,13.13
2018-03-06T00:36:59.462Z,14.17
2018-03-06T00:39:27.017Z,15.97
2018-03-06T00:41:54.482Z,16.77
2018-03-06T00:44:22.008Z,16.77
2018-03-06T00:46:49.828Z,17.47
2018-03-06T00:49:17.690Z,15.73
2018-03-06T00:51:45.161Z,17.37
2018-03-06T00:54:13.109Z,15.00
2018-03-06T00:56:40.679Z,15.27
2018-03-06T00:59:08.154Z,16.80
2018-03-06T01:01:36.023Z,16.50
2018-03-06T01:04:03.478Z,19.03
2018-03-06T01:06:31.039Z,18.03
2018-03-06T01:08:58.961Z,15.70
2018-03-06T01:11:26.473Z,15.40
2018-03-06T01:13:54.037Z,17.77
2018-03-06T01:16:21.507Z,18.63
2018-03-06T01:18:49.057Z,17.57
2018-03-06T01:21:16.526Z,18.00
2018-03-06T01:23:44.090Z,18.60
2018-03-06T01:26:11.654Z,15.40
2018-03-06T01:28:39.130Z,18.03
2018-03-06T01:31:07.005Z,17.73
2018-03-06T01:33:34.871Z,17.93
2018-03-06T01:36:05.386Z,16.90
2018-03-06T01:38:32.847Z,16.67
2018-03-06T01:41:00.410Z,16.93
2018-03-06T01:43:27.873Z,18.40
2018-03-06T01:45:55.440Z,16.73
2018-03-06T01:48:23.000Z,17.70
2018-03-06T01:50:50.473Z,18.23
2018-03-06T01:53:18.022Z,19.90
2018-03-06T01:55:45.604Z,19.07
2018-03-06T01:58:13.070Z,16.70
2018-03-06T02:00:40.944Z,18.00
2018-03-06T02:03:08.799Z,18.47
2018-03-06T02:05:36.298Z,17.97
2018-03-06T02:08:03.761Z,17.50
2018-03-06T02:10:31.251Z,20.37
2018-03-06T02:12:59.362Z,18.40
2018-03-06T02:15:26.829Z,19.20
2018-03-06T02:17:54.291Z,17.17
2018-03-06T02:20:21.854Z,20.00
2018-03-06T02:22:49.735Z,18.43
2018-03-06T02:25:17.588Z,17.93
2018-03-06T02:27:45.065Z,18.43
2018-03-06T02:30:12.942Z,19.70
2018-03-06T02:32:40.495Z,19.00
2018-03-06T02:35:08.382Z,18.53
2018-03-06T02:37:36.263Z,18.70
2018-03-06T02:40:03.734Z,19.57
2018-03-06T02:42:31.274Z,20.70
2018-03-06T02:44:59.163Z,20.20
2018-03-06T02:47:27.098Z,19.13
2018-03-06T02:49:54.589Z,20.07
2018-03-06T02:52:22.537Z,18.27
2018-03-06T02:54:50.094Z,19.40
2018-03-06T02:57:17.593Z,19.47
2018-03-06T02:59:45.526Z,20.10
2018-03-06T03:02:13.003Z,20.37
2018-03-06T03:04:40.572Z,21.07
2018-03-06T03:07:08.460Z,21.53
2018-03-06T03:09:36.387Z,21.93
2018-03-06T03:12:03.873Z,22.23
2018-03-06T03:14:31.325Z,23.70
2018-03-06T03:16:58.795Z,22.43
2018-03-06T03:19:26.357Z,22.07
2018-03-06T03:21:54.496Z,21.77
2018-03-06T03:24:21.968Z,20.70
2018-03-06T03:26:49.433Z,22.50
2018-03-06T03:29:16.918Z,23.40
2018-03-06T03:31:44.479Z,21.80
2018-03-06T03:34:11.943Z,21.77
2018-03-06T03:36:39.435Z,23.70
2018-03-06T03:39:07.306Z,22.47
2018-03-06T03:41:35.196Z,24.60
2018-03-06T03:44:02.679Z,26.60
2018-03-06T03:46:30.134Z,24.30
2018-03-06T03:48:57.586Z,26.40
2018-03-06T03:51:25.095Z,26.50
2018-03-06T03:53:52.564Z,27.80
2018-03-06T03:56:20.119Z,27.00
2018-03-06T03:58:47.574Z,25.60
2018-03-06T04:01:15.146Z,25.37
2018-03-06T04:03:43.475Z,28.93
2018-03-06T04:06:10.935Z,26.10
2018-03-06T04:08:38.446Z,27.27
2018-03-06T04:11:05.918Z,26.03
2018-03-06T04:13:33.385Z,25.43
2018-03-06T04:16:00.852Z,26.33
2018-03-06T04:18:28.814Z,25.17
2018-03-06T04:20:56.688Z,28.20
2018-03-06T04:23:24.163Z,26.20
2018-03-06T04:25:51.626Z,27.17
2018-03-06T04:28:19.485Z,26.83
2018-03-06T04:30:47.029Z,26.67
2018-03-06T04:33:14.612Z,30.80
2018-03-06T04:35:42.097Z,28.57
2018-03-06T04:38:09.967Z,28.97
2018-03-06T04:40:38.255Z,29.10
2018-03-06T04:43:05.735Z,30.10
2018-03-06T04:45:33.215Z,33.50
2018-03-06T04:48:00.812Z,30.93
2018-03-06T04:50:28.282Z,31.03
2018-03-06T04:52:56.136Z,31.50
2018-03-06T04:55:23.601Z,30.13
2018-03-06T04:57:51.085Z,29.00
2018-03-06T05:00:18.949Z,31.97
2018-03-06T05:02:46.910Z,32.77
2018-03-06T05:05:14.392Z,31.40
2018-03-06T05:07:42.249Z,31.30
2018-03-06T05:10:09.729Z,31.37
2018-03-06T05:12:37.598Z,34.33
2018-03-06T05:15:05.452Z,33.03
2018-03-06T05:17:33.259Z,31.97
2018-03-06T05:20:00.738Z,33.60
2018-03-06T05:22:28.259Z,32.40
2018-03-06T05:24:56.232Z,31.23
2018-03-06T05:27:24.088Z,30.60
2018-03-06T05:29:51.577Z,33.20
2018-03-06T05:32:19.437Z,34.10
2018-03-06T05:34:47.292Z,31.40
2018-03-06T05:37:14.846Z,33.87
2018-03-06T05:39:42.451Z,31.30
2018-03-06T05:42:09.976Z,33.40
2018-03-06T05:44:37.534Z,32.77
2018-03-06T05:47:04.996Z,33.40
2018-03-06T05:49:32.476Z,30.53
2018-03-06T05:52:00.039Z,31.03
2018-03-06T05:54:27.902Z,33.60
2018-03-06T05:56:55.366Z,29.80
2018-03-06T05:59:22.946Z,32.40
2018-03-06T06:01:50.814Z,33.33
2018-03-06T06:04:18.294Z,34.50
2018-03-06T06:06:46.148Z,34.00
2018-03-06T06:09:13.627Z,35.47
2018-03-06T06:11:41.489Z,32.57
2018-03-06T06:14:09.437Z,35.33
2018-03-06T06:16:36.926Z,35.67
2018-03-06T06:19:04.768Z,35.33
2018-03-06T06:21:32.234Z,36.43
2018-03-06T06:23:59.723Z,32.43
2018-03-06T06:26:27.669Z,33.97
2018-03-06T06:28:55.244Z,36.50
2018-03-06T06:31:22.734Z,36.40
2018-03-06T06:33:50.197Z,35.97
2018-03-06T06:36:17.671Z,36.03
2018-03-06T06:38:45.138Z,37.43
2018-03-06T06:41:12.604Z,35.80
2018-03-06T06:43:40.112Z,35.47
2018-03-06T06:46:07.575Z,34.47
2018-03-06T06:48:35.049Z,36.37
2018-03-06T06:51:02.517Z,36.23
2018-03-06T06:53:30.383Z,39.20
2018-03-06T06:55:58.241Z,37.60
2018-03-06T06:58:26.207Z,35.00
2018-03-06T07:00:53.752Z,39.33
2018-03-06T07:03:21.212Z,35.80
2018-03-06T07:05:48.686Z,39.77
2018-03-06T07:08:16.755Z,37.93
2018-03-06T07:10:44.218Z,40.40
2018-03-06T07:13:11.700Z,37.00
2018-03-06T07:15:39.164Z,39.90
2018-03-06T07:18:06.717Z,40.83
2018-03-06T07:20:34.196Z,42.23
2018-03-06T07:23:01.742Z,39.70
2018-03-06T07:25:29.229Z,41.53
2018-03-06T07:27:57.081Z,39.03
2018-03-06T07:30:24.654Z,40.70
2018-03-06T07:32:52.131Z,38.50
2018-03-06T07:35:19.982Z,41.47
2018-03-06T07:37:47.458Z,42.50
2018-03-06T07:40:15.333Z,43.70
2018-03-06T07:42:43.208Z,43.67
2018-03-06T07:45:11.146Z,40.83
2018-03-06T07:47:38.608Z,45.00
2018-03-06T07:50:06.074Z,41.90
2018-03-06T07:52:33.532Z,45.57
2018-03-06T07:55:01.106Z,48.33
2018-03-06T07:57:28.583Z,42.77
2018-03-06T07:59:56.496Z,41.63
2018-03-06T08:02:23.999Z,41.60
2018-03-06T08:04:51.492Z,44.00
2018-03-06T08:07:19.396Z,44.40
2018-03-06T08:09:46.875Z,41.13
2018-03-06T08:12:14.353Z,40.30
2018-03-06T08:14:41.824Z,45.10
2018-03-06T08:17:09.276Z,44.40
2018-03-06T08:19:36.878Z,41.03
2018-03-06T08:22:04.358Z,41.00
2018-03-06T08:24:31.816Z,41.13
2018-03-06T08:26:59.326Z,44.17
2018-03-06T08:29:26.777Z,43.80
2018-03-06T08:31:54.373Z,42.97
2018-03-06T08:34:21.921Z,44.20
2018-03-06T08:36:49.479Z,44.20
2018-03-06T08:39:17.485Z,42.27
2018-03-06T08:41:45.370Z,45.20
2018-03-06T08:44:13.360Z,44.27
2018-03-06T08:46:40.854Z,44.00
2018-03-06T08:49:08.314Z,42.23
2018-03-06T08:51:35.919Z,43.60
2018-03-06T08:54:03.382Z,46.10
2018-03-06T08:56:31.266Z,44.70
2018-03-06T08:58:59.145Z,44.17
2018-03-06T09:01:26.641Z,45.50
2018-03-06T09:03:54.101Z,44.87
2018-03-06T09:06:21.555Z,42.03
2018-03-06T09:08:49.070Z,41.67
2018-03-06T09:11:16.945Z,49.83
2018-03-06T09:13:44.801Z,44.77
2018-03-06T09:16:12.278Z,43.90
2018-03-06T09:18:40.125Z,48.57
2018-03-06T09:21:07.720Z,47.30
2018-03-06T09:23:35.576Z,42.97
2018-03-06T09:26:03.042Z,45.57
2018-03-06T09:28:30.914Z,43.43
2018-03-06T09:30:58.871Z,46.07
2018-03-06T09:33:26.336Z,47.10
2018-03-06T09:35:53.810Z,45.57
2018-03-06T09:38:21.675Z,44.33
2018-03-06T09:40:49.155Z,45.53
2018-03-06T09:43:17.098Z,46.90
2018-03-06T09:45:44.650Z,43.93
2018-03-06T09:48:12.102Z,46.40
2018-03-06T09:50:39.573Z,46.90
2018-03-06T09:53:07.130Z,46.57
2018-03-06T09:55:34.615Z,43.77
2018-03-06T09:58:03.530Z,45.83
2018-03-06T10:00:31.392Z,45.33
2018-03-06T10:02:59.008Z,46.07
2018-03-06T10:05:26.509Z,46.03
2018-03-06T10:07:53.996Z,44.00
2018-03-06T10:10:21.868Z,45.80
2018-03-06T10:12:49.733Z,43.37
2018-03-06T10:15:17.802Z,45.67
2018-03-06T10:17:45.268Z,44.50
2018-03-06T10:20:13.414Z,42.80
2018-03-06T10:22:40.879Z,43.23
2018-03-06T10:25:08.349Z,44.57
2018-03-06T10:27:35.841Z,43.63
2018-03-06T10:30:03.336Z,43.30
2018-03-06T10:32:30.832Z,44.50
2018-03-06T10:34:58.288Z,44.13
2018-03-06T10:37:25.782Z,49.30
2018-03-06T10:39:53.661Z,44.60
2018-03-06T10:42:21.529Z,44.40
2018-03-06T10:44:49.912Z,45.03
2018-03-06T10:47:17.801Z,45.93
2018-03-06T10:49:45.258Z,45.40
2018-03-06T10:52:13.209Z,45.10
2018-03-06T10:54:40.747Z,44.67
2018-03-06T10:57:08.239Z,45.27
2018-03-06T10:59:35.773Z,45.07
2018-03-06T11:02:04.174Z,60.73
2018-03-06T11:04:32.056Z,48.27
2018-03-06T11:06:59.884Z,44.20
2018-03-06T11:09:27.384Z,45.50
2018-03-06T11:11:54.907Z,45.90
2018-03-06T11:14:22.390Z,46.70
2018-03-06T11:16:49.907Z,48.27
2018-03-06T11:19:17.373Z,48.07
2018-03-06T11:21:45.108Z,47.60
2018-03-06T11:24:12.602Z,47.07
2018-03-06T11:26:40.137Z,48.07
2018-03-06T11:29:08.023Z,45.93
2018-03-06T11:31:35.733Z,45.30
2018-03-06T11:34:03.252Z,46.67
2018-03-06T11:36:31.118Z,45.10
2018-03-06T11:38:59.498Z,47.93
2018-03-06T11:41:27.457Z,44.77
2018-03-06T11:43:55.175Z,44.87
2018-03-06T11:46:22.682Z,43.60
2018-03-06T11:48:50.274Z,45.50
2018-03-06T11:51:18.169Z,46.47
2018-03-06T11:53:45.723Z,45.23
2018-03-06T11:56:13.214Z,46.50
2018-03-06T11:58:40.695Z,47.10
2018-03-06T12:01:08.320Z,45.70
2018-03-06T12:03:35.882Z,44.03
2018-03-06T12:06:03.520Z,46.67
2018-03-06T12:08:31.391Z,46.43
2018-03-06T12:10:59.273Z,45.33
2018-03-06T12:13:27.194Z,44.23
2018-03-06T12:15:54.705Z,44.93
2018-03-06T12:18:22.583Z,45.33
2018-03-06T12:20:50.094Z,45.17
2018-03-06T12:23:17.728Z,44.50
2018-03-06T12:25:45.200Z,45.43
2018-03-06T12:28:12.860Z,44.27
2018-03-06T12:30:40.644Z,43.07
2018-03-06T12:33:08.200Z,45.33
2018-03-06T12:35:35.664Z,45.43
2018-03-06T12:38:03.150Z,47.20
2018-03-06T12:40:30.678Z,47.37
2018-03-06T12:42:58.152Z,45.17
2018-03-06T12:45:25.654Z,46.10
2018-03-06T12:47:53.208Z,45.90
2018-03-06T12:50:20.696Z,45.90
2018-03-06T12:52:48.598Z,45.57
2018-03-06T12:55:16.080Z,46.07
2018-03-06T12:57:43.558Z,43.10
2018-03-06T13:00:11.040Z,42.27
2018-03-06T13:02:38.608Z,40.50
2018-03-06T13:05:06.100Z,40.93
2018-03-06T13:07:33.970Z,37.83
2018-03-06T13:10:01.477Z,40.00
2018-03-06T13:12:28.964Z,43.27
2018-03-06T13:14:56.541Z,43.40
2018-03-06T13:17:24.038Z,41.67
2018-03-06T13:19:51.511Z,45.30
2018-03-06T13:22:19.023Z,45.67
2018-03-06T13:24:46.902Z,43.90
2018-03-06T13:27:15.630Z,43.57
2018-03-06T13:29:43.117Z,45.10
2018-03-06T13:32:10.746Z,45.23
2018-03-06T13:34:38.425Z,47.20
2018-03-06T13:37:06.393Z,46.53
2018-03-06T13:39:34.023Z,48.43
2018-03-06T13:42:01.584Z,46.67
2018-03-06T13:44:29.048Z,45.40
2018-03-06T13:46:56.588Z,45.00
2018-03-06T13:49:24.078Z,46.07
2018-03-06T13:51:51.535Z,47.07
2018-03-06T13:54:19.422Z,45.33
2018-03-06T13:56:47.367Z,48.53
2018-03-06T13:59:14.853Z,47.10
2018-03-06T14:01:42.916Z,44.87
2018-03-06T14:04:10.384Z,43.83
2018-03-06T14:06:38.267Z,46.63
2018-03-06T14:09:06.162Z,43.37
2018-03-06T14:11:33.620Z,43.00
2018-03-06T14:14:01.135Z,43.10
2018-03-06T14:16:28.610Z,43.80
2018-03-06T14:18:56.474Z,44.20
2018-03-06T14:21:23.946Z,45.50
2018-03-06T14:23:51.830Z,46.83
2018-03-06T14:26:19.690Z,45.40
2018-03-06T14:28:47.240Z,46.40
2018-03-06T14:31:14.711Z,46.70
2018-03-06T14:33:42.265Z,43.27
2018-03-06T14:36:09.829Z,46.43
2018-03-06T14:38:37.296Z,42.47
2018-03-06T14:41:04.762Z,43.17
2018-03-06T14:43:32.255Z,45.07
2018-03-06T14:45:59.700Z,41.20
2018-03-06T14:48:27.552Z,42.67
2018-03-06T14:50:55.110Z,41.80
2018-03-06T14:53:22.665Z,41.00
2018-03-06T14:55:50.158Z,40.67
2018-03-06T14:58:17.652Z,41.53
2018-03-06T15:00:45.160Z,39.43
2018-03-06T15:03:12.661Z,41.10
2018-03-06T15:05:40.153Z,40.53
2018-03-06T15:08:07.614Z,36.87
2018-03-06T15:10:35.090Z,41.17
2018-03-06T15:13:02.585Z,37.30
2018-03-06T15:15:30.050Z,39.10
2018-03-06T15:17:57.626Z,38.40
2018-03-06T15:20:25.069Z,36.50
2018-03-06T15:22:52.538Z,39.50
2018-03-06T15:25:20.013Z,39.23
2018-03-06T15:27:47.875Z,37.57
2018-03-06T15:30:15.759Z,37.80
2018-03-06T15:32:43.632Z,41.60
2018-03-06T15:35:11.508Z,38.23
2018-03-06T15:37:39.382Z,38.13
2018-03-06T15:40:06.891Z,37.10
2018-03-06T15:42:34.406Z,37.93
2018-03-06T15:45:02.366Z,36.37
2018-03-06T15:47:30.268Z,37.10
2018-03-06T15:49:57.762Z,36.37
2018-03-06T15:52:25.922Z,38.00
2018-03-06T15:54:53.451Z,38.90
2018-03-06T15:57:21.344Z,36.33
2018-03-06T15:59:48.844Z,37.70
2018-03-06T16:02:16.439Z,37.17
2018-03-06T16:04:44.010Z,36.83
2018-03-06T16:07:11.924Z,38.07
2018-03-06T16:09:39.427Z,34.80
2018-03-06T16:12:07.421Z,34.90
2018-03-06T16:14:35.319Z,38.23
2018-03-06T16:17:02.877Z,35.13
2018-03-06T16:19:30.437Z,36.70
2018-03-06T16:21:57.978Z,33.30
2018-03-06T16:24:25.946Z,36.43
2018-03-06T16:26:53.446Z,35.60
2018-03-06T16:29:21.329Z,38.50
2018-03-06T16:31:49.122Z,35.60
2018-03-06T16:34:16.731Z,37.10
2018-03-06T16:36:44.622Z,36.50
2018-03-06T16:39:12.118Z,35.40
2018-03-06T16:41:39.630Z,37.90
2018-03-06T16:44:07.566Z,35.07
2018-03-06T16:46:35.059Z,39.83
2018-03-06T16:49:02.953Z,39.93
2018-03-06T16:51:30.453Z,35.70
2018-03-06T16:53:57.961Z,36.90
2018-03-06T16:56:25.860Z,35.50
2018-03-06T16:58:53.387Z,37.17
2018-03-06T17:01:20.967Z,41.40
2018-03-06T17:03:48.860Z,40.83
2018-03-06T17:06:16.385Z,42.30
2018-03-06T17:08:43.940Z,43.00
2018-03-06T17:11:11.424Z,42.00
2018-03-06T17:13:39.327Z,38.90
2018-03-06T17:16:07.013Z,38.67
2018-03-06T17:18:34.478Z,42.23
2018-03-06T17:21:01.986Z,40.73
2018-03-06T17:23:29.884Z,42.23
2018-03-06T17:25:57.391Z,40.60
2018-03-06T17:28:24.952Z,41.57
2018-03-06T17:30:52.680Z,40.90
2018-03-06T17:33:20.212Z,43.70
2018-03-06T17:35:48.113Z,42.33
2018-03-06T17:38:17.031Z,41.37
2018-03-06T17:40:44.625Z,40.80
2018-03-06T17:43:12.126Z,39.67
2018-03-06T17:45:39.686Z,38.43
2018-03-06T17:48:07.245Z,40.30
2018-03-06T17:50:35.153Z,35.93
2018-03-06T17:53:02.702Z,37.90
2018-03-06T17:55:30.217Z,39.80
2018-03-06T17:57:57.731Z,41.90
2018-03-06T18:00:25.239Z,41.80
2018-03-06T18:02:52.802Z,42.10
2018-03-06T18:05:20.442Z,40.97
2018-03-06T18:07:48.104Z,40.93
2018-03-06T18:10:16.028Z,39.43
2018-03-06T18:12:43.580Z,41.37
2018-03-06T18:15:11.159Z,42.50
2018-03-06T18:17:39.289Z,43.57
2018-03-06T18:20:06.905Z,42.57
2018-03-06T18:22:34.643Z,42.63
2018-03-06T18:25:02.260Z,42.97
2018-03-06T18:27:29.777Z,41.57
2018-03-06T18:29:57.361Z,41.37
2018-03-06T18:32:25.370Z,41.60
2018-03-06T18:34:52.879Z,43.23
2018-03-06T18:37:20.387Z,43.17
2018-03-06T18:39:47.911Z,42.57
2018-03-06T18:42:15.454Z,43.00
2018-03-06T18:44:43.063Z,43.00
2018-03-06T18:47:11.151Z,42.20
2018-03-06T19:03:10.225Z,42.03
2018-03-06T19:05:49.723Z,42.90
2018-03-06T19:08:18.514Z,46.90
2018-03-06T19:10:46.466Z,43.27
2018-03-06T19:13:13.998Z,44.07
2018-03-06T19:15:41.558Z,40.20
2018-03-06T19:18:09.127Z,45.23
2018-03-06T19:20:36.659Z,47.53
2018-03-06T19:23:04.662Z,45.13
2018-03-06T19:25:32.211Z,42.83
2018-03-06T19:27:59.795Z,43.00
2018-03-06T19:30:27.437Z,42.77
2018-03-06T19:32:54.964Z,41.47
2018-03-06T19:35:22.534Z,40.70
2018-03-06T19:37:50.081Z,44.67
2018-03-06T19:40:17.554Z,45.00
2018-03-06T19:42:45.145Z,44.10
2018-03-06T19:45:13.037Z,43.00
2018-03-06T19:47:40.555Z,43.17
2018-03-06T19:50:08.021Z,44.10
2018-03-06T19:52:35.559Z,43.27
2018-03-06T19:55:03.036Z,42.13
2018-03-06T19:57:30.541Z,41.90
2018-03-06T19:59:58.081Z,43.30
2018-03-06T20:02:25.977Z,45.37
2018-03-06T20:04:53.477Z,41.47
2018-03-06T20:07:21.063Z,43.50
2018-03-06T20:09:48.543Z,43.13
2018-03-06T20:12:16.527Z,43.50
2018-03-06T20:14:49.981Z,45.00
2018-03-06T20:17:17.596Z,41.40
2018-03-06T20:19:45.104Z,40.13
2018-03-06T20:22:12.746Z,44.87
2018-03-06T20:24:46.078Z,42.20
2018-03-06T20:27:13.718Z,41.00
2018-03-06T20:29:41.259Z,41.53
2018-03-06T20:32:14.699Z,42.77
2018-03-06T20:34:42.289Z,40.50
2018-03-06T20:37:10.869Z,43.50
2018-03-06T20:39:44.572Z,42.17
2018-03-06T20:42:12.878Z,40.87
2018-03-06T20:44:40.737Z,39.60
2018-03-06T20:47:15.192Z,41.90
2018-03-06T20:49:42.711Z,42.67
2018-03-06T20:52:10.674Z,39.73
2018-03-06T20:54:44.055Z,38.33
2018-03-06T20:57:11.537Z,45.17
2018-03-06T20:59:38.997Z,43.30
2018-03-06T21:02:06.485Z,36.27
2018-03-06T21:04:34.454Z,37.00
2018-03-06T21:07:02.318Z,35.60
2018-03-06T21:09:30.283Z,34.73
2018-03-06T21:11:57.759Z,39.23
2018-03-06T21:14:25.712Z,33.50
2018-03-06T21:16:53.235Z,34.20
2018-03-06T21:19:20.766Z,35.70
2018-03-06T21:21:48.315Z,32.20
2018-03-06T21:24:15.858Z,30.57
2018-03-06T21:26:43.429Z,27.80
2018-03-06T21:29:11.049Z,30.10
2018-03-06T21:31:38.552Z,30.83
2018-03-06T21:34:06.029Z,28.77
2018-03-06T21:36:34.363Z,33.07
2018-03-06T21:39:02.039Z,29.93
2018-03-06T21:41:29.521Z,29.03
2018-03-06T21:43:57.083Z,30.17
2018-03-06T21:46:24.562Z,28.80
2018-03-06T21:48:52.022Z,26.67
2018-03-06T21:51:19.581Z,28.20
2018-03-06T21:53:47.442Z,22.40
2018-03-06T21:56:14.907Z,20.83
2018-03-06T21:58:42.807Z,20.97
2018-03-06T22:01:10.657Z,17.60
2018-03-06T22:03:38.642Z,18.13
2018-03-06T22:06:06.112Z,18.67
2018-03-06T22:08:33.984Z,18.77
2018-03-06T22:11:01.850Z,18.30
2018-03-06T22:13:29.385Z,19.10
2018-03-06T22:15:56.863Z,18.20
2018-03-06T22:18:24.366Z,20.63
2018-03-06T22:20:51.857Z,20.47
2018-03-06T22:23:19.323Z,18.83
2018-03-06T22:25:46.896Z,19.80
2018-03-06T22:28:14.358Z,18.37
2018-03-06T22:30:42.327Z,17.73
2018-03-06T22:33:09.798Z,18.80
2018-03-06T22:35:38.223Z,18.97
2018-03-06T22:38:06.163Z,17.17
2018-03-06T22:40:33.723Z,17.27
2018-03-06T22:43:01.217Z,17.17
2018-03-06T22:45:29.085Z,17.97
2018-03-06T22:47:56.556Z,17.03
2018-03-06T22:50:24.424Z,18.87
2018-03-06T22:52:52.299Z,19.03
2018-03-06T22:55:20.166Z,19.07
2018-03-06T22:57:48.038Z,17.53
2018-03-06T23:00:15.940Z,17.70
2018-03-06T23:02:43.421Z,18.33
2018-03-06T23:05:10.884Z,17.50
2018-03-06T23:07:38.376Z,16.97
2018-03-06T23:10:05.863Z,18.87
2018-03-06T23:12:33.402Z,16.63
2018-03-06T23:15:00.897Z,17.27
2018-03-06T23:17:28.833Z,16.57
2018-03-06T23:19:56.282Z,14.67
2018-03-06T23:22:23.766Z,16.40
2018-03-06T23:24:51.301Z,15.37
2018-03-06T23:27:18.734Z,15.93
2018-03-06T23:29:46.247Z,16.27
2018-03-06T23:32:13.702Z,15.10
2018-03-06T23:34:41.162Z,17.77
2018-03-06T23:37:08.620Z,16.40
2018-03-06T23:39:36.116Z,16.80
2018-03-06T23:42:03.994Z,16.90
2018-03-06T23:44:32.041Z,18.70
2018-03-06T23:46:59.509Z,17.17
2018-03-06T23:49:27.366Z,17.00
2018-03-06T23:51:54.931Z,15.00
2018-03-06T23:54:22.408Z,17.33
2018-03-06T23:56:49.953Z,16.70
2018-03-06T23:59:17.413Z,16.60
